Admire, Kansas
Current Conditions -  °F | °C
As of 1:53 AM on Sunday 23 Nov 2014 (Local Time) from KEMP Reporting Station
Haze Haze  
Wind Chill: 54°   Ceiling: 700
Heat Index: 54°   Visibility: 4mi
Dew Point: 53°   Wind: 15mph
Humidity: 97%   Direction: 160°SSE
Pressure: 29.59"   Gusts: NA
Location:  38.64°N, 96.1°W
Report Text: KEMP 230753Z AUTO 16013KT 4SM BR OVC007 12/12 A2959 RMK AO2 SLP018 T01220117
Loading
Personal Weather Stations






























Interactive Weather Map New forecast layout! Learn more

10-Day Weather Forecast

Advertisements
Track Severe Weather on mobile